createdAt,value
2022-08-07T00:00:11.186Z,49.87
2022-08-07T00:02:44.552Z,49.90
2022-08-07T00:05:14.654Z,49.83
2022-08-07T00:07:42.833Z,50.01
2022-08-07T00:10:27.291Z,50.04
2022-08-07T00:13:01.170Z,49.89
2022-08-07T00:15:38.082Z,49.93
2022-08-07T00:18:19.823Z,49.86
2022-08-07T00:20:54.449Z,49.80
2022-08-07T00:23:22.927Z,49.67
2022-08-07T00:26:00.067Z,49.61
2022-08-07T00:28:33.520Z,49.76
2022-08-07T00:31:06.270Z,49.53
2022-08-07T00:33:40.726Z,49.62
2022-08-07T00:36:10.309Z,49.58
2022-08-07T00:38:39.867Z,49.49
2022-08-07T00:41:10.126Z,49.42
2022-08-07T00:43:58.926Z,49.39
2022-08-07T00:46:31.044Z,49.46
2022-08-07T00:49:03.091Z,49.36
2022-08-07T00:51:58.221Z,49.57
2022-08-07T00:54:21.128Z,49.67
2022-08-07T00:56:51.462Z,49.58
2022-08-07T00:59:20.318Z,50.01
2022-08-07T01:02:02.836Z,49.86
2022-08-07T01:04:32.595Z,49.83
2022-08-07T01:07:04.829Z,50.11
2022-08-07T01:10:02.334Z,49.98
2022-08-07T01:12:29.815Z,49.98
2022-08-07T01:15:00.972Z,50.01
2022-08-07T01:17:30.751Z,49.93
2022-08-07T01:20:03.641Z,50.02
2022-08-07T01:22:33.734Z,49.91
2022-08-07T01:25:05.164Z,49.91
2022-08-07T01:27:52.571Z,49.65
2022-08-07T01:30:27.232Z,49.80
2022-08-07T01:32:58.233Z,49.93
2022-08-07T01:35:52.606Z,50.04
2022-08-07T01:38:25.575Z,50.05
2022-08-07T01:40:59.629Z,49.93
2022-08-07T01:43:34.683Z,50.11
2022-08-07T01:46:08.435Z,50.34
2022-08-07T01:48:46.442Z,50.14
2022-08-07T01:51:58.656Z,50.22
2022-08-07T01:54:19.239Z,50.24
2022-08-07T01:57:03.629Z,50.06
2022-08-07T01:59:35.990Z,50.31
2022-08-07T02:02:06.943Z,50.35
2022-08-07T02:04:52.486Z,50.48
2022-08-07T02:07:45.197Z,50.29
2022-08-07T02:10:17.391Z,50.27
2022-08-07T02:12:50.001Z,50.40
2022-08-07T02:15:26.433Z,50.53
2022-08-07T02:17:57.112Z,50.53
2022-08-07T02:20:28.380Z,50.44
2022-08-07T02:22:59.886Z,50.40
2022-08-07T02:26:10.205Z,50.41
2022-08-07T02:28:24.741Z,50.48
2022-08-07T02:30:56.795Z,50.51
2022-08-07T02:33:42.038Z,50.33
2022-08-07T02:36:28.564Z,50.44
2022-08-07T02:39:02.323Z,50.27
2022-08-07T02:41:54.368Z,50.31
2022-08-07T02:44:23.740Z,50.51
2022-08-07T02:46:56.021Z,50.50
2022-08-07T02:49:55.714Z,50.39
2022-08-07T02:52:21.432Z,50.43
2022-08-07T02:55:00.395Z,50.48
2022-08-07T02:57:31.142Z,50.49
2022-08-07T03:00:05.035Z,50.41
2022-08-07T03:02:50.967Z,50.40
2022-08-07T03:05:24.744Z,50.74
2022-08-07T03:08:07.683Z,50.68
2022-08-07T03:10:40.765Z,50.77
2022-08-07T03:13:20.141Z,50.68
2022-08-07T03:15:56.761Z,50.77
2022-08-07T03:18:34.285Z,50.94
2022-08-07T03:21:04.013Z,50.91
2022-08-07T03:23:33.895Z,51.12
2022-08-07T03:26:23.551Z,50.97
2022-08-07T03:28:53.505Z,50.91
2022-08-07T03:31:26.199Z,50.77
2022-08-07T03:34:11.350Z,50.82
2022-08-07T03:36:47.255Z,50.80
2022-08-07T03:39:17.311Z,50.88
2022-08-07T03:42:06.153Z,51.07
2022-08-07T03:44:37.023Z,50.87
2022-08-07T03:47:10.951Z,51.03
2022-08-07T03:49:47.956Z,51.12
2022-08-07T03:52:26.384Z,50.98
2022-08-07T03:55:06.176Z,51.15
2022-08-07T03:58:35.251Z,51.04
2022-08-07T04:00:35.369Z,51.04
2022-08-07T04:03:04.786Z,51.22
2022-08-07T04:05:40.391Z,51.08
2022-08-07T04:08:18.311Z,51.28
2022-08-07T04:10:53.845Z,51.18
2022-08-07T04:13:27.706Z,51.27
2022-08-07T04:15:58.031Z,51.48
2022-08-07T04:18:57.024Z,51.70
2022-08-07T04:21:15.260Z,51.68
2022-08-07T04:24:05.912Z,51.79
2022-08-07T04:26:33.299Z,51.85
2022-08-07T04:29:01.485Z,51.96
2022-08-07T04:31:38.667Z,51.85
2022-08-07T04:34:27.454Z,51.73
2022-08-07T04:37:02.622Z,51.74
2022-08-07T04:39:36.457Z,51.71
2022-08-07T04:42:07.282Z,51.78
2022-08-07T04:44:36.559Z,51.71
2022-08-07T04:47:57.364Z,51.91
2022-08-07T04:50:22.288Z,51.88
2022-08-07T04:53:27.638Z,52.01
2022-08-07T04:58:10.971Z,51.85
2022-08-07T04:59:18.518Z,52.08
2022-08-07T05:01:44.141Z,52.16
2022-08-07T05:04:18.122Z,51.97
2022-08-07T05:06:54.666Z,51.93
2022-08-07T05:09:45.693Z,52.13
2022-08-07T05:12:27.402Z,52.13
2022-08-07T05:15:21.876Z,52.26
2022-08-07T05:18:00.806Z,52.41
2022-08-07T05:20:35.252Z,52.16
2022-08-07T05:23:06.714Z,52.22
2022-08-07T05:26:13.581Z,52.19
2022-08-07T05:28:34.697Z,52.06
2022-08-07T05:31:03.667Z,52.18
2022-08-07T05:33:35.456Z,52.00
2022-08-07T05:36:12.216Z,52.23
2022-08-07T05:39:00.606Z,52.28
2022-08-07T05:42:00.647Z,52.19
2022-08-07T05:44:29.468Z,52.23
2022-08-07T05:47:00.248Z,52.32
2022-08-07T05:49:40.426Z,52.29
2022-08-07T05:52:11.999Z,52.23
2022-08-07T05:54:53.536Z,52.19
2022-08-07T05:57:30.110Z,52.23
2022-08-07T05:59:59.585Z,52.16
2022-08-07T06:02:40.887Z,52.33
2022-08-07T06:05:15.826Z,52.25
2022-08-07T06:08:14.726Z,52.31
2022-08-07T06:10:39.335Z,52.17
2022-08-07T06:13:13.374Z,52.26
2022-08-07T06:15:44.103Z,52.31
2022-08-07T06:18:21.496Z,52.29
2022-08-07T06:22:14.461Z,52.30
2022-08-07T06:24:37.130Z,52.27
2022-08-07T06:26:30.179Z,52.45
2022-08-07T06:29:01.331Z,52.49
2022-08-07T06:31:47.100Z,52.45
2022-08-07T06:34:21.597Z,52.51
2022-08-07T06:36:52.154Z,52.35
2022-08-07T06:40:15.906Z,52.32
2022-08-07T06:42:19.258Z,52.18
2022-08-07T06:45:11.276Z,52.33
2022-08-07T06:47:57.647Z,52.29
2022-08-07T06:50:30.665Z,52.35
2022-08-07T06:53:00.584Z,52.25
2022-08-07T06:56:00.160Z,52.46
2022-08-07T06:58:27.478Z,52.34
2022-08-07T07:01:03.357Z,52.32
2022-08-07T07:03:47.912Z,52.37
2022-08-07T07:06:26.096Z,52.13
2022-08-07T07:08:57.024Z,52.09
2022-08-07T07:12:08.338Z,52.23
2022-08-07T07:14:16.649Z,52.15
2022-08-07T07:16:51.195Z,52.21
2022-08-07T07:19:55.241Z,52.17
2022-08-07T07:22:36.117Z,52.10
2022-08-07T07:25:02.909Z,52.34
2022-08-07T07:28:02.178Z,52.51
2022-08-07T07:30:38.547Z,52.40
2022-08-07T07:33:11.458Z,52.51
2022-08-07T07:35:50.588Z,52.34
2022-08-07T07:38:28.970Z,52.29
2022-08-07T07:41:02.199Z,52.19
2022-08-07T07:43:48.007Z,52.04
2022-08-07T07:46:37.407Z,51.93
2022-08-07T07:50:34.945Z,51.91
2022-08-07T07:51:59.736Z,51.80
2022-08-07T07:54:28.379Z,51.74
2022-08-07T07:56:57.494Z,51.40
2022-08-07T07:59:51.583Z,51.04
2022-08-07T08:02:22.758Z,51.02
2022-08-07T08:05:02.490Z,50.83
2022-08-07T08:07:35.943Z,50.73
2022-08-07T08:10:14.834Z,50.44
2022-08-07T08:13:00.377Z,50.21
2022-08-07T08:15:57.655Z,50.14
2022-08-07T08:18:26.268Z,49.80
2022-08-07T08:20:54.381Z,49.55
2022-08-07T08:23:40.287Z,49.36
2022-08-07T08:26:26.603Z,49.17
2022-08-07T08:28:55.902Z,48.92
2022-08-07T08:31:59.163Z,48.67
2022-08-07T08:34:27.092Z,48.73
2022-08-07T08:36:58.146Z,48.26
2022-08-07T08:39:39.738Z,47.75
2022-08-07T08:42:25.887Z,47.98
2022-08-07T08:45:04.222Z,47.54
2022-08-07T08:47:52.871Z,47.25
2022-08-07T08:50:34.881Z,46.39
2022-08-07T08:53:16.649Z,46.72
2022-08-07T08:55:53.803Z,46.01
2022-08-07T08:58:31.322Z,46.07
2022-08-07T09:01:15.403Z,45.80
2022-08-07T09:03:55.369Z,46.14
2022-08-07T09:06:35.032Z,45.47
2022-08-07T09:09:13.371Z,45.62
2022-08-07T09:12:02.756Z,45.20
2022-08-07T09:14:50.935Z,44.43
2022-08-07T09:17:59.739Z,43.94
2022-08-07T09:20:34.935Z,44.08
2022-08-07T09:24:31.401Z,43.76
2022-08-07T09:26:00.456Z,43.81
2022-08-07T09:30:01.527Z,43.83
2022-08-07T09:31:38.448Z,43.87
2022-08-07T09:34:10.892Z,43.38
2022-08-07T09:36:49.510Z,43.48
2022-08-07T09:39:54.304Z,43.50
2022-08-07T09:42:25.244Z,43.09
2022-08-07T09:47:24.823Z,43.64
2022-08-07T09:47:59.088Z,43.49
2022-08-07T09:50:39.873Z,43.52
2022-08-07T09:53:12.604Z,43.39
2022-08-07T09:56:05.555Z,43.18
2022-08-07T09:58:56.415Z,42.84
2022-08-07T10:01:51.479Z,42.69
2022-08-07T10:04:38.428Z,42.63
2022-08-07T10:07:26.440Z,42.65
2022-08-07T10:10:25.570Z,42.70
2022-08-07T10:13:55.338Z,42.64
2022-08-07T10:16:33.196Z,42.92
2022-08-07T10:19:11.328Z,42.81
2022-08-07T10:22:14.331Z,43.17
2022-08-07T10:24:59.507Z,42.30
2022-08-07T10:27:47.557Z,42.44
2022-08-07T10:30:20.414Z,42.04
2022-08-07T10:33:09.355Z,41.50
2022-08-07T10:35:57.670Z,41.42
2022-08-07T10:38:49.049Z,41.09
2022-08-07T10:41:54.723Z,39.24
2022-08-07T10:44:15.321Z,38.54
2022-08-07T10:46:52.582Z,37.58
2022-08-07T10:49:49.412Z,36.18
2022-08-07T10:52:14.479Z,36.02
2022-08-07T10:54:53.128Z,35.05
2022-08-07T10:57:34.334Z,34.62
2022-08-07T11:00:36.731Z,33.93
2022-08-07T11:03:01.935Z,33.93
2022-08-07T11:05:35.844Z,33.26
2022-08-07T11:08:30.305Z,32.21
2022-08-07T11:11:02.987Z,31.74
2022-08-07T11:14:43.662Z,31.26
2022-08-07T11:16:30.715Z,31.20
2022-08-07T11:19:15.002Z,30.40
2022-08-07T11:21:55.490Z,29.95
2022-08-07T11:24:31.673Z,29.21
2022-08-07T11:27:04.821Z,29.42
2022-08-07T11:29:42.743Z,30.33
2022-08-07T11:32:26.186Z,30.33
2022-08-07T11:34:57.400Z,30.70
2022-08-07T11:37:57.486Z,29.83
2022-08-07T11:40:31.604Z,29.49
2022-08-07T11:43:02.454Z,29.54
2022-08-07T11:45:36.576Z,29.53
2022-08-07T11:48:29.866Z,29.15
2022-08-07T11:51:09.905Z,27.98
2022-08-07T11:54:01.382Z,28.24
2022-08-07T11:56:37.690Z,28.00
2022-08-07T12:00:08.852Z,28.17
2022-08-07T12:02:20.536Z,27.31
2022-08-07T12:05:01.789Z,27.60
2022-08-07T12:07:39.137Z,27.27
2022-08-07T12:10:23.136Z,27.57
2022-08-07T12:12:54.887Z,27.23
2022-08-07T12:15:46.497Z,27.14
2022-08-07T12:18:15.989Z,27.43
2022-08-07T12:20:57.177Z,27.52
2022-08-07T12:24:05.032Z,27.29
2022-08-07T12:26:29.738Z,27.37
2022-08-07T12:29:04.816Z,27.62
2022-08-07T12:32:01.730Z,27.90
2022-08-07T12:34:29.383Z,27.62
2022-08-07T12:36:59.090Z,27.73
2022-08-07T12:39:43.663Z,27.44
2022-08-07T12:42:13.630Z,27.43
2022-08-07T12:44:44.938Z,27.71
2022-08-07T12:47:21.474Z,27.14
2022-08-07T12:50:38.182Z,26.95
2022-08-07T12:52:58.478Z,27.45
2022-08-07T12:55:40.718Z,27.24
2022-08-07T12:58:11.611Z,27.59
2022-08-07T13:00:50.099Z,27.72
2022-08-07T13:04:02.982Z,28.38
2022-08-07T13:07:01.169Z,28.16
2022-08-07T13:10:20.388Z,27.03
2022-08-07T13:12:47.609Z,25.39
2022-08-07T13:15:23.284Z,24.93
2022-08-07T13:18:02.328Z,24.90
2022-08-07T13:20:35.513Z,24.92
2022-08-07T13:23:59.835Z,25.15
2022-08-07T13:26:03.028Z,24.58
2022-08-07T13:28:35.372Z,24.62
2022-08-07T13:31:06.273Z,24.62
2022-08-07T13:34:33.768Z,24.82
2022-08-07T13:36:29.642Z,24.59
2022-08-07T13:39:02.744Z,24.89
2022-08-07T13:41:41.527Z,24.54
2022-08-07T13:44:13.098Z,24.72
2022-08-07T13:46:49.442Z,25.08
2022-08-07T13:50:31.624Z,24.76
2022-08-07T13:52:26.454Z,25.02
2022-08-07T13:54:57.228Z,25.44
2022-08-07T13:57:37.632Z,25.48
2022-08-07T14:00:13.480Z,25.41
2022-08-07T14:02:56.711Z,25.71
2022-08-07T14:05:37.493Z,25.94
2022-08-07T14:08:08.769Z,25.31
2022-08-07T14:10:42.473Z,25.12
2022-08-07T14:13:16.210Z,24.82
2022-08-07T14:15:45.088Z,25.17
2022-08-07T14:18:28.230Z,25.10
2022-08-07T14:21:08.411Z,25.11
2022-08-07T14:24:00.425Z,25.18
2022-08-07T14:26:32.493Z,25.48
2022-08-07T14:31:56.421Z,25.73
2022-08-07T14:34:29.632Z,25.49
2022-08-07T14:37:01.632Z,25.45
2022-08-07T14:40:15.558Z,25.44
2022-08-07T14:42:24.569Z,25.69
2022-08-07T14:44:59.872Z,26.43
2022-08-07T14:47:28.582Z,26.91
2022-08-07T14:49:59.281Z,27.43
2022-08-07T14:52:28.971Z,28.46
2022-08-07T14:54:58.503Z,29.13
2022-08-07T15:03:19.500Z,29.09
2022-08-07T15:05:54.825Z,29.17
2022-08-07T15:08:33.794Z,28.93
2022-08-07T15:11:03.363Z,29.15
2022-08-07T15:13:37.037Z,29.32
2022-08-07T15:16:10.925Z,29.12
2022-08-07T15:18:48.745Z,29.55
2022-08-07T15:21:58.460Z,29.38
2022-08-07T15:25:14.899Z,28.67
2022-08-07T15:27:04.923Z,27.75
2022-08-07T15:30:04.651Z,28.13
2022-08-07T15:32:39.169Z,27.96
2022-08-07T15:35:10.021Z,27.70
2022-08-07T15:38:04.330Z,27.59
2022-08-07T15:43:53.537Z,28.01
2022-08-07T15:46:32.221Z,27.93
2022-08-07T15:54:34.659Z,28.76
2022-08-07T15:57:10.819Z,28.50
2022-08-07T15:59:59.324Z,28.76
2022-08-07T16:02:31.246Z,29.20
2022-08-07T16:05:03.505Z,29.33
2022-08-07T16:08:32.106Z,29.63
2022-08-07T16:10:23.017Z,29.47
2022-08-07T16:13:05.436Z,29.95
2022-08-07T16:15:57.784Z,30.36
2022-08-07T16:18:49.693Z,30.74
2022-08-07T16:22:02.049Z,30.65
2022-08-07T16:24:34.652Z,30.94
2022-08-07T16:27:17.907Z,30.63
2022-08-07T16:30:30.131Z,31.42
2022-08-07T16:34:01.859Z,31.52
2022-08-07T16:35:58.933Z,31.84
2022-08-07T16:39:00.510Z,31.49
2022-08-07T16:42:00.037Z,31.27
2022-08-07T16:45:14.296Z,30.13
2022-08-07T16:47:56.582Z,30.61
2022-08-07T16:50:38.915Z,30.91
2022-08-07T16:54:01.088Z,30.94
2022-08-07T16:56:37.324Z,30.83
2022-08-07T16:59:15.213Z,30.37
2022-08-07T17:01:59.596Z,29.87
2022-08-07T17:04:37.004Z,30.31
2022-08-07T17:07:28.367Z,30.98
2022-08-07T17:10:32.303Z,30.67
2022-08-07T17:13:41.532Z,31.16
2022-08-07T17:16:18.682Z,30.98
2022-08-07T17:18:50.499Z,30.56
2022-08-07T17:21:22.843Z,31.05
2022-08-07T17:23:57.107Z,31.22
2022-08-07T17:26:31.433Z,30.88
2022-08-07T17:30:15.860Z,31.33
2022-08-07T17:32:30.999Z,31.83
2022-08-07T17:35:50.271Z,31.71
2022-08-07T17:38:06.828Z,31.60
2022-08-07T17:40:42.696Z,31.63
2022-08-07T17:43:20.605Z,31.17
2022-08-07T17:46:17.994Z,31.02
2022-08-07T17:48:52.950Z,31.44
2022-08-07T17:52:00.726Z,31.27
2022-08-07T17:54:39.583Z,31.50
2022-08-07T17:57:19.193Z,31.25
2022-08-07T17:59:50.517Z,30.21
2022-08-07T18:02:24.310Z,30.18
2022-08-07T18:04:57.036Z,30.86
2022-08-07T18:07:38.585Z,31.42
2022-08-07T18:10:29.087Z,32.00
2022-08-07T18:13:16.666Z,33.03
2022-08-07T18:16:03.600Z,33.39
2022-08-07T18:21:01.780Z,33.51
2022-08-07T18:21:57.929Z,33.75
2022-08-07T18:24:33.571Z,34.57
2022-08-07T18:27:26.074Z,34.58
2022-08-07T18:30:31.085Z,35.44
2022-08-07T18:33:18.989Z,36.41
2022-08-07T18:35:57.209Z,36.51
2022-08-07T18:38:59.366Z,37.28
2022-08-07T18:41:20.451Z,37.87
2022-08-07T18:43:59.402Z,38.18
2022-08-07T18:46:35.622Z,39.04
2022-08-07T18:50:19.542Z,39.25
2022-08-07T18:52:41.027Z,39.82
2022-08-07T18:55:43.476Z,40.19
2022-08-07T18:58:14.342Z,40.29
2022-08-07T19:00:53.776Z,40.08
2022-08-07T19:03:37.768Z,39.96
2022-08-07T19:06:08.338Z,40.77
2022-08-07T19:08:47.199Z,40.79
2022-08-07T19:11:36.033Z,40.66
2022-08-07T19:14:11.618Z,41.09
2022-08-07T19:17:05.513Z,41.10
2022-08-07T19:19:37.004Z,40.90
2022-08-07T19:22:12.530Z,40.87
2022-08-07T19:24:54.510Z,40.73
2022-08-07T19:30:55.674Z,40.93
2022-08-07T19:31:03.754Z,41.15
2022-08-07T19:33:12.801Z,41.26
2022-08-07T19:35:42.000Z,41.79
2022-08-07T19:38:16.688Z,41.84
2022-08-07T19:40:50.270Z,41.90
2022-08-07T19:43:43.498Z,42.32
2022-08-07T19:46:15.736Z,42.40
2022-08-07T19:48:54.039Z,42.28
2022-08-07T19:51:52.392Z,43.01
2022-08-07T19:54:32.021Z,42.76
2022-08-07T19:58:01.223Z,43.25
2022-08-07T19:59:57.272Z,43.09
2022-08-07T20:02:29.899Z,43.37
2022-08-07T20:05:00.614Z,43.89
2022-08-07T20:07:46.170Z,44.02
2022-08-07T20:10:37.958Z,44.01
2022-08-07T20:13:06.724Z,44.17
2022-08-07T20:15:50.805Z,44.83
2022-08-07T20:18:19.959Z,44.78
2022-08-07T20:20:48.354Z,45.19
2022-08-07T20:23:32.600Z,45.16
2022-08-07T20:26:10.282Z,45.30
2022-08-07T20:28:40.966Z,45.36
2022-08-07T20:31:21.211Z,46.07
2022-08-07T20:33:56.830Z,46.44
2022-08-07T20:36:26.188Z,46.65
2022-08-07T20:39:00.486Z,47.29
2022-08-07T20:41:38.558Z,47.27
2022-08-07T20:44:13.035Z,47.52
2022-08-07T20:46:42.753Z,47.42
2022-08-07T20:49:59.540Z,48.21
2022-08-07T20:52:01.599Z,48.29
2022-08-07T20:54:34.981Z,48.51
2022-08-07T20:57:05.988Z,48.79
2022-08-07T21:00:08.015Z,48.74
2022-08-07T21:02:54.089Z,48.72
2022-08-07T21:05:25.732Z,48.83
2022-08-07T21:08:14.688Z,49.04
2022-08-07T21:10:44.378Z,49.37
2022-08-07T21:13:15.278Z,49.40
2022-08-07T21:15:58.769Z,49.53
2022-08-07T21:18:33.965Z,49.86
2022-08-07T21:21:02.255Z,50.03
2022-08-07T21:23:42.670Z,50.01
2022-08-07T21:26:23.001Z,50.40
2022-08-07T21:28:54.665Z,50.29
2022-08-07T21:32:42.284Z,50.25
2022-08-07T21:34:26.772Z,50.49
2022-08-07T21:37:03.923Z,50.36
2022-08-07T21:42:41.920Z,50.13
2022-08-07T21:46:03.835Z,49.84
2022-08-07T21:48:05.334Z,50.08
2022-08-07T21:50:35.818Z,49.88
2022-08-07T21:53:08.623Z,49.87
2022-08-07T21:55:41.107Z,49.88
2022-08-07T21:58:12.050Z,49.71
2022-08-07T22:00:40.953Z,49.74
2022-08-07T22:03:17.125Z,49.83
2022-08-07T22:05:51.041Z,50.10
2022-08-07T22:08:21.430Z,50.10
2022-08-07T22:10:53.616Z,50.58
2022-08-07T22:13:24.190Z,50.48
2022-08-07T22:16:39.028Z,50.56
2022-08-07T22:19:07.392Z,50.52
2022-08-07T22:22:02.054Z,50.17
2022-08-07T22:24:33.308Z,50.24
2022-08-07T22:27:05.022Z,50.28
2022-08-07T22:29:48.282Z,50.36
2022-08-07T22:32:21.530Z,50.29
2022-08-07T22:34:54.690Z,50.28
2022-08-07T22:38:03.645Z,50.53
2022-08-07T22:40:19.651Z,50.27
2022-08-07T22:42:48.471Z,50.30
2022-08-07T22:46:04.068Z,50.21
2022-08-07T22:48:31.565Z,49.90
2022-08-07T22:51:16.647Z,50.28
2022-08-07T22:54:06.951Z,50.46
2022-08-07T22:56:42.226Z,50.44
2022-08-07T22:59:42.548Z,50.71
2022-08-07T23:02:27.441Z,50.49
2022-08-07T23:06:09.932Z,50.63
2022-08-07T23:08:04.861Z,50.61
2022-08-07T23:10:44.296Z,50.34
2022-08-07T23:13:29.525Z,50.29
2022-08-07T23:16:46.470Z,50.23
2022-08-07T23:19:47.659Z,49.99
2022-08-07T23:22:27.607Z,49.83
2022-08-07T23:25:05.084Z,49.75
2022-08-07T23:28:20.227Z,49.69
2022-08-07T23:30:46.733Z,49.74
2022-08-07T23:34:35.191Z,50.06
2022-08-07T23:36:44.094Z,49.62
2022-08-07T23:39:41.318Z,49.96
2022-08-07T23:42:22.050Z,49.96
2022-08-07T23:45:03.238Z,50.00
2022-08-07T23:48:02.578Z,49.87
2022-08-07T23:50:36.873Z,50.02
2022-08-07T23:53:17.636Z,49.99
2022-08-07T23:55:55.572Z,49.73
2022-08-07T23:58:37.544Z,49.94
